createdAt,value
2017-09-06T00:00:36.757Z,20
2017-09-06T00:01:38.899Z,20
2017-09-06T00:02:41.401Z,20.1
2017-09-06T00:03:43.464Z,20.1
2017-09-06T00:04:45.536Z,20.1
2017-09-06T00:05:47.749Z,20
2017-09-06T00:06:49.882Z,20
2017-09-06T00:07:52.519Z,20
2017-09-06T00:08:54.593Z,20.1
2017-09-06T00:09:56.682Z,20
2017-09-06T00:10:58.776Z,20
2017-09-06T00:12:00.968Z,20
2017-09-06T00:13:03.425Z,20
2017-09-06T00:14:05.561Z,20
2017-09-06T00:15:07.718Z,20
2017-09-06T00:16:09.791Z,20
2017-09-06T00:17:11.906Z,20
2017-09-06T00:18:14.354Z,20.1
2017-09-06T00:19:16.460Z,20.1
2017-09-06T00:20:18.677Z,20
2017-09-06T00:21:20.813Z,20
2017-09-06T00:22:22.908Z,19.9
2017-09-06T00:23:25.344Z,19.9
2017-09-06T00:24:27.421Z,20
2017-09-06T00:25:29.501Z,20
2017-09-06T00:26:31.584Z,19.9
2017-09-06T00:27:33.774Z,19.9
2017-09-06T00:28:36.233Z,19.9
2017-09-06T00:29:38.313Z,19.9
2017-09-06T00:30:40.449Z,20
2017-09-06T00:31:42.523Z,19.9
2017-09-06T00:32:44.659Z,20
2017-09-06T00:33:47.170Z,19.9
2017-09-06T00:34:49.315Z,19.9
2017-09-06T00:35:51.492Z,20
2017-09-06T00:36:53.635Z,19.9
2017-09-06T00:37:55.776Z,19.9
2017-09-06T00:38:58.212Z,19.8
2017-09-06T00:40:00.409Z,19.9
2017-09-06T00:41:02.511Z,20
2017-09-06T00:42:04.618Z,19.9
2017-09-06T00:43:06.760Z,19.9
2017-09-06T00:44:09.207Z,19.9
2017-09-06T00:45:11.397Z,19.9
2017-09-06T00:46:13.688Z,19.9
2017-09-06T00:47:15.938Z,19.9
2017-09-06T00:48:18.041Z,19.9
2017-09-06T00:49:20.544Z,19.9
2017-09-06T00:50:22.657Z,19.9
2017-09-06T00:51:24.839Z,19.9
2017-09-06T00:52:26.975Z,19.9
2017-09-06T00:53:29.176Z,19.8
2017-09-06T00:54:31.569Z,19.8
2017-09-06T00:55:33.876Z,19.8
2017-09-06T00:56:36.025Z,19.7
2017-09-06T00:57:38.198Z,19.9
2017-09-06T00:58:40.359Z,19.9
2017-09-06T00:59:42.815Z,19.9
2017-09-06T01:00:45.673Z,19.8
2017-09-06T01:01:47.852Z,19.8
2017-09-06T01:02:50.061Z,19.7
2017-09-06T01:03:52.342Z,19.7
2017-09-06T01:04:54.875Z,19.8
2017-09-06T01:05:57.068Z,19.7
2017-09-06T01:06:59.195Z,19.7
2017-09-06T01:08:01.329Z,19.8
2017-09-06T01:09:03.580Z,19.8
2017-09-06T01:10:06.068Z,19.7
2017-09-06T01:11:08.219Z,19.6
2017-09-06T01:12:10.584Z,19.6
2017-09-06T01:13:12.723Z,19.7
2017-09-06T01:14:14.943Z,19.6
2017-09-06T01:15:17.377Z,19.6
2017-09-06T01:16:19.588Z,19.6
2017-09-06T01:17:21.756Z,19.6
2017-09-06T01:18:23.829Z,19.6
2017-09-06T01:19:26.005Z,19.6
2017-09-06T01:20:28.495Z,19.5
2017-09-06T01:21:30.681Z,19.5
2017-09-06T01:22:32.838Z,19.6
2017-09-06T01:23:35.010Z,19.5
2017-09-06T01:24:37.161Z,19.5
2017-09-06T01:25:39.544Z,19.6
2017-09-06T01:26:41.704Z,19.5
2017-09-06T01:27:43.820Z,19.4
2017-09-06T01:28:45.953Z,19.4
2017-09-06T01:29:48.303Z,19.4
2017-09-06T01:30:50.719Z,19.4
2017-09-06T01:31:52.881Z,19.5
2017-09-06T01:32:54.993Z,19.4
2017-09-06T01:33:57.214Z,19.4
2017-09-06T01:34:59.404Z,19.4
2017-09-06T01:36:01.878Z,19.4
2017-09-06T01:37:04.090Z,19.3
2017-09-06T01:38:06.185Z,19.3
2017-09-06T01:39:08.329Z,19.4
2017-09-06T01:40:10.428Z,19.4
2017-09-06T01:41:12.816Z,19.3
2017-09-06T01:42:14.905Z,19.3
2017-09-06T01:43:17.209Z,19.3
2017-09-06T01:44:19.335Z,19.3
2017-09-06T01:45:21.534Z,19.2
2017-09-06T01:46:24.043Z,19.2
2017-09-06T01:47:26.236Z,19.2
2017-09-06T01:48:28.401Z,19.3
2017-09-06T01:49:30.488Z,19.3
2017-09-06T01:50:32.604Z,19.2
2017-09-06T01:51:35.114Z,19.3
2017-09-06T01:52:37.190Z,19.3
2017-09-06T01:53:39.298Z,19.2
2017-09-06T01:54:41.357Z,19.2
2017-09-06T01:55:43.496Z,19.3
2017-09-06T01:56:46.063Z,19.2
2017-09-06T01:57:48.370Z,19.3
2017-09-06T01:58:50.559Z,19.3
2017-09-06T01:59:52.721Z,19.1
2017-09-06T02:00:54.798Z,19.1
2017-09-06T02:01:57.286Z,19.1
2017-09-06T02:02:59.458Z,19.1
2017-09-06T02:04:01.652Z,19
2017-09-06T02:05:03.729Z,19
2017-09-06T02:06:05.929Z,19.1
2017-09-06T02:07:08.383Z,19.1
2017-09-06T02:08:10.617Z,19.1
2017-09-06T02:09:12.784Z,19.1
2017-09-06T02:10:14.930Z,19
2017-09-06T02:11:16.976Z,19
2017-09-06T02:12:19.391Z,19
2017-09-06T02:13:21.464Z,19
2017-09-06T02:14:23.578Z,19
2017-09-06T02:15:25.832Z,19
2017-09-06T02:16:28.023Z,19
2017-09-06T02:17:30.534Z,19.1
2017-09-06T02:18:32.692Z,19.1
2017-09-06T02:19:34.796Z,19.1
2017-09-06T02:20:36.973Z,19.1
2017-09-06T02:21:39.164Z,19.1
2017-09-06T02:22:41.576Z,19.2
2017-09-06T02:23:43.727Z,19
2017-09-06T02:24:45.886Z,19.1
2017-09-06T02:25:48.004Z,19.2
2017-09-06T02:26:50.108Z,19.1
2017-09-06T02:27:52.538Z,19.1
2017-09-06T02:28:54.757Z,19.1
2017-09-06T02:29:56.875Z,19.1
2017-09-06T02:30:59.036Z,19
2017-09-06T02:32:01.183Z,19
2017-09-06T02:33:03.615Z,19
2017-09-06T02:34:05.795Z,19
2017-09-06T02:35:07.883Z,19
2017-09-06T02:36:10.093Z,19
2017-09-06T02:37:12.233Z,19
2017-09-06T02:38:14.662Z,19.1
2017-09-06T02:39:16.773Z,19
2017-09-06T02:40:18.935Z,19
2017-09-06T02:41:21.062Z,19
2017-09-06T02:42:23.238Z,19
2017-09-06T02:43:25.775Z,19.1
2017-09-06T02:44:27.922Z,19
2017-09-06T02:45:29.981Z,19
2017-09-06T02:46:32.076Z,18.9
2017-09-06T02:47:34.330Z,18.9
2017-09-06T02:48:36.883Z,18.9
2017-09-06T02:49:39.051Z,19
2017-09-06T02:50:41.167Z,18.9
2017-09-06T02:51:43.280Z,18.9
2017-09-06T02:52:45.394Z,19
2017-09-06T02:53:48.002Z,18.9
2017-09-06T02:54:50.127Z,19
2017-09-06T02:55:52.384Z,19
2017-09-06T02:56:54.820Z,19
2017-09-06T02:57:57.205Z,19
2017-09-06T02:58:59.637Z,19
2017-09-06T03:00:01.772Z,19
2017-09-06T03:01:03.907Z,19
2017-09-06T03:02:06.048Z,18.9
2017-09-06T03:03:08.180Z,18.9
2017-09-06T03:04:10.657Z,18.9
2017-09-06T03:05:13.001Z,18.9
2017-09-06T03:06:15.184Z,18.9
2017-09-06T03:07:17.397Z,18.9
2017-09-06T03:08:19.506Z,18.9
2017-09-06T03:09:21.963Z,18.9
2017-09-06T03:10:24.132Z,18.9
2017-09-06T03:11:26.217Z,18.9
2017-09-06T03:12:28.310Z,18.9
2017-09-06T03:13:30.364Z,18.9
2017-09-06T03:14:32.774Z,18.9
2017-09-06T03:15:34.868Z,18.9
2017-09-06T03:16:37.004Z,18.9
2017-09-06T03:17:39.089Z,18.9
2017-09-06T03:18:41.238Z,18.8
2017-09-06T03:19:43.601Z,18.8
2017-09-06T03:20:45.774Z,18.8
2017-09-06T03:21:47.931Z,18.8
2017-09-06T03:22:50.067Z,18.8
2017-09-06T03:23:52.274Z,18.7
2017-09-06T03:24:54.713Z,18.8
2017-09-06T03:25:56.834Z,18.8
2017-09-06T03:26:58.940Z,18.8
2017-09-06T03:28:01.118Z,18.8
2017-09-06T03:29:03.231Z,18.8
2017-09-06T03:30:05.609Z,18.7
2017-09-06T03:31:07.841Z,18.7
2017-09-06T03:32:09.929Z,18.7
2017-09-06T03:33:12.054Z,18.6
2017-09-06T03:34:14.249Z,18.7
2017-09-06T03:35:16.707Z,18.7
2017-09-06T03:36:18.862Z,18.7
2017-09-06T03:37:20.973Z,18.7
2017-09-06T03:38:23.015Z,18.6
2017-09-06T03:39:25.137Z,18.7
2017-09-06T03:40:27.483Z,18.6
2017-09-06T03:41:29.646Z,18.7
2017-09-06T03:42:31.805Z,18.9
2017-09-06T03:43:33.925Z,18.9
2017-09-06T03:44:36.130Z,18.7
2017-09-06T03:45:38.491Z,18.6
2017-09-06T03:46:40.716Z,18.6
2017-09-06T03:47:42.783Z,18.7
2017-09-06T03:48:44.943Z,18.6
2017-09-06T03:49:47.040Z,18.6
2017-09-06T03:50:49.439Z,18.6
2017-09-06T03:51:51.561Z,18.5
2017-09-06T03:52:53.743Z,18.6
2017-09-06T03:53:55.888Z,18.6
2017-09-06T03:54:58.094Z,18.6
2017-09-06T03:56:00.474Z,18.6
2017-09-06T03:57:02.622Z,18.6
2017-09-06T03:58:04.777Z,18.6
2017-09-06T03:59:06.945Z,18.6
2017-09-06T04:00:09.060Z,18.6
2017-09-06T04:01:11.451Z,18.6
2017-09-06T04:02:13.537Z,18.6
2017-09-06T04:03:15.619Z,18.7
2017-09-06T04:04:17.754Z,18.7
2017-09-06T04:05:19.883Z,18.6
2017-09-06T04:06:22.451Z,18.7
2017-09-06T04:07:24.591Z,18.7
2017-09-06T04:08:26.653Z,18.6
2017-09-06T04:09:28.826Z,18.6
2017-09-06T04:10:30.940Z,18.6
2017-09-06T04:11:33.417Z,18.6
2017-09-06T04:12:35.724Z,18.6
2017-09-06T04:13:37.871Z,18.6
2017-09-06T04:14:40.032Z,18.6
2017-09-06T04:15:42.144Z,18.6
2017-09-06T04:16:44.486Z,18.6
2017-09-06T04:17:46.551Z,18.6
2017-09-06T04:18:48.608Z,18.6
2017-09-06T04:19:50.677Z,18.6
2017-09-06T04:20:52.812Z,18.6
2017-09-06T04:21:55.270Z,18.6
2017-09-06T04:22:57.414Z,18.6
2017-09-06T04:23:59.654Z,18.6
2017-09-06T04:25:01.742Z,18.6
2017-09-06T04:26:03.830Z,18.6
2017-09-06T04:27:06.291Z,18.6
2017-09-06T04:28:08.425Z,18.6
2017-09-06T04:29:10.598Z,18.6
2017-09-06T04:30:12.736Z,18.6
2017-09-06T04:31:14.844Z,18.5
2017-09-06T04:32:17.258Z,18.5
2017-09-06T04:33:19.452Z,18.5
2017-09-06T04:34:21.599Z,18.6
2017-09-06T04:35:23.697Z,18.6
2017-09-06T04:36:25.862Z,18.6
2017-09-06T04:37:28.419Z,18.6
2017-09-06T04:38:30.925Z,18.6
2017-09-06T04:39:32.964Z,18.6
2017-09-06T04:40:35.014Z,18.7
2017-09-06T04:41:37.148Z,18.6
2017-09-06T04:42:39.571Z,18.6
2017-09-06T04:43:41.674Z,18.6
2017-09-06T04:44:43.822Z,18.6
2017-09-06T04:45:45.983Z,18.6
2017-09-06T04:46:48.131Z,18.7
2017-09-06T04:47:50.463Z,18.6
2017-09-06T04:48:52.555Z,18.6
2017-09-06T04:49:54.625Z,18.5
2017-09-06T04:50:56.698Z,18.5
2017-09-06T04:51:58.855Z,18.5
2017-09-06T04:53:01.215Z,18.5
2017-09-06T04:54:03.321Z,18.6
2017-09-06T04:55:05.383Z,18.6
2017-09-06T04:56:07.469Z,18.6
2017-09-06T04:57:09.566Z,18.5
2017-09-06T04:58:11.961Z,18.6
2017-09-06T04:59:14.133Z,18.6
2017-09-06T05:00:16.272Z,18.6
2017-09-06T05:01:18.325Z,18.5
2017-09-06T05:02:20.412Z,18.5
2017-09-06T05:03:22.916Z,18.5
2017-09-06T05:04:24.998Z,18.6
2017-09-06T05:05:27.073Z,18.6
2017-09-06T05:06:29.126Z,18.6
2017-09-06T05:07:31.178Z,18.6
2017-09-06T05:08:33.597Z,18.7
2017-09-06T05:09:35.708Z,18.7
2017-09-06T05:10:37.840Z,18.7
2017-09-06T05:11:39.932Z,18.6
2017-09-06T05:12:42.101Z,18.6
2017-09-06T05:13:44.506Z,18.6
2017-09-06T05:14:46.665Z,18.6
2017-09-06T05:15:48.776Z,18.6
2017-09-06T05:16:50.947Z,18.6
2017-09-06T05:17:53.130Z,18.6
2017-09-06T05:18:55.616Z,18.6
2017-09-06T05:19:57.659Z,18.7
2017-09-06T05:20:59.755Z,18.6
2017-09-06T05:22:01.898Z,18.5
2017-09-06T05:23:04.010Z,18.5
2017-09-06T05:24:06.421Z,18.5
2017-09-06T05:25:08.526Z,18.5
2017-09-06T05:26:10.698Z,18.6
2017-09-06T05:27:12.821Z,18.5
2017-09-06T05:28:14.989Z,18.6
2017-09-06T05:29:17.433Z,18.7
2017-09-06T05:30:19.601Z,18.7
2017-09-06T05:31:21.698Z,18.6
2017-09-06T05:32:23.936Z,18.5
2017-09-06T05:33:26.099Z,18.5
2017-09-06T05:34:28.539Z,18.5
2017-09-06T05:35:30.719Z,18.5
2017-09-06T05:36:32.900Z,18.5
2017-09-06T05:37:35.082Z,18.5
2017-09-06T05:38:37.249Z,18.5
2017-09-06T05:39:39.676Z,18.6
2017-09-06T05:40:41.839Z,18.6
2017-09-06T05:41:43.951Z,18.7
2017-09-06T05:42:46.129Z,18.7
2017-09-06T05:43:48.294Z,18.7
2017-09-06T05:44:50.775Z,18.7
2017-09-06T05:45:52.926Z,18.7
2017-09-06T05:46:55.119Z,18.6
2017-09-06T05:47:57.419Z,18.6
2017-09-06T05:48:59.560Z,18.6
2017-09-06T05:50:02.050Z,18.6
2017-09-06T05:51:04.215Z,18.6
2017-09-06T05:52:06.396Z,18.6
2017-09-06T05:53:08.512Z,18.6
2017-09-06T05:54:10.581Z,18.7
2017-09-06T05:55:12.989Z,18.6
2017-09-06T05:56:15.077Z,18.7
2017-09-06T05:57:17.217Z,18.7
2017-09-06T05:58:19.397Z,18.7
2017-09-06T05:59:21.636Z,18.7
2017-09-06T06:00:24.119Z,18.8
2017-09-06T06:01:26.420Z,18.7
2017-09-06T06:02:29.081Z,18.8
2017-09-06T06:03:31.274Z,18.9
2017-09-06T06:04:33.416Z,19
2017-09-06T06:05:35.990Z,18.9
2017-09-06T06:06:38.213Z,18.9
2017-09-06T06:07:40.318Z,19.3
2017-09-06T06:08:42.461Z,19.7
2017-09-06T06:09:44.559Z,19.9
2017-09-06T06:10:47.041Z,20.2
2017-09-06T06:11:49.213Z,20.6
2017-09-06T06:12:51.471Z,20.9
2017-09-06T06:13:53.541Z,21
2017-09-06T06:14:55.687Z,20.9
2017-09-06T06:15:58.154Z,21
2017-09-06T06:17:00.810Z,20.8
2017-09-06T06:18:02.955Z,20
2017-09-06T06:19:05.084Z,20.1
2017-09-06T06:20:07.187Z,20.6
2017-09-06T06:21:09.711Z,20.4
2017-09-06T06:22:11.912Z,20
2017-09-06T06:23:13.993Z,20.2
2017-09-06T06:24:16.097Z,20.9
2017-09-06T06:25:18.220Z,21.1
2017-09-06T06:26:20.724Z,20.6
2017-09-06T06:27:22.874Z,20
2017-09-06T06:28:25.056Z,19.7
2017-09-06T06:29:27.170Z,19.7
2017-09-06T06:30:29.325Z,19.5
2017-09-06T06:31:31.889Z,19.7
2017-09-06T06:32:34.109Z,19.8
2017-09-06T06:33:36.320Z,19.6
2017-09-06T06:34:38.454Z,19.6
2017-09-06T06:35:40.633Z,19.5
2017-09-06T06:36:43.145Z,19.5
2017-09-06T06:37:45.378Z,19.6
2017-09-06T06:38:47.547Z,19.5
2017-09-06T06:39:49.709Z,19.5
2017-09-06T06:40:51.901Z,19.4
2017-09-06T06:41:54.363Z,19.5
2017-09-06T06:42:56.498Z,19.6
2017-09-06T06:43:58.657Z,19.7
2017-09-06T06:45:00.857Z,19.5
2017-09-06T06:46:03.063Z,19.9
2017-09-06T06:47:05.516Z,20.2
2017-09-06T06:48:07.651Z,20.5
2017-09-06T06:49:09.768Z,20.6
2017-09-06T06:50:11.874Z,20.3
2017-09-06T06:51:14.023Z,20.3
2017-09-06T06:52:16.458Z,20
2017-09-06T06:53:18.627Z,19.9
2017-09-06T06:54:20.811Z,19.9
2017-09-06T06:55:22.980Z,19.9
2017-09-06T06:56:25.122Z,19.8
2017-09-06T06:57:27.674Z,19.8
2017-09-06T06:58:29.814Z,19.9
2017-09-06T06:59:31.927Z,19.8
2017-09-06T07:00:34.041Z,20
2017-09-06T07:01:36.110Z,20
2017-09-06T07:02:38.550Z,20
2017-09-06T07:03:40.692Z,19.9
2017-09-06T07:04:42.810Z,19.6
2017-09-06T07:05:44.951Z,19.9
2017-09-06T07:06:47.090Z,20
2017-09-06T07:07:49.551Z,20.1
2017-09-06T07:08:51.729Z,20.2
2017-09-06T07:09:53.832Z,20.1
2017-09-06T07:10:55.961Z,20
2017-09-06T07:11:58.074Z,20.2
2017-09-06T07:13:00.504Z,20.4
2017-09-06T07:14:02.612Z,20.4
2017-09-06T07:15:04.761Z,20.4
2017-09-06T07:16:07.132Z,20.7
2017-09-06T07:17:09.236Z,20.7
2017-09-06T07:18:11.613Z,20.6
2017-09-06T07:19:13.694Z,20.6
2017-09-06T07:20:15.859Z,20.8
2017-09-06T07:21:17.906Z,21
2017-09-06T07:22:20.084Z,21
2017-09-06T07:23:22.495Z,21
2017-09-06T07:24:24.723Z,20.9
2017-09-06T07:25:26.858Z,20.7
2017-09-06T07:26:28.953Z,20.4
2017-09-06T07:27:31.095Z,20.3
2017-09-06T07:28:33.511Z,20.1
2017-09-06T07:29:35.677Z,20.1
2017-09-06T07:30:37.843Z,20.1
2017-09-06T07:31:39.993Z,20.1
2017-09-06T07:32:42.140Z,20
2017-09-06T07:33:44.603Z,19.8
2017-09-06T07:34:46.725Z,19.9
2017-09-06T07:35:48.891Z,19.9
2017-09-06T07:36:50.993Z,20
2017-09-06T07:37:53.114Z,19.9
2017-09-06T07:38:55.547Z,19.9
2017-09-06T07:39:57.629Z,19.9
2017-09-06T07:40:59.829Z,19.9
2017-09-06T07:42:02.021Z,19.9
2017-09-06T07:43:04.167Z,19.9
2017-09-06T07:44:06.669Z,19.9
2017-09-06T07:45:08.826Z,20
2017-09-06T07:46:11.049Z,20.1
2017-09-06T07:47:13.211Z,20.4
2017-09-06T07:48:15.338Z,21.1
2017-09-06T07:49:17.788Z,21.7
2017-09-06T07:50:19.906Z,22
2017-09-06T07:51:21.950Z,22.1
2017-09-06T07:52:24.053Z,21.9
2017-09-06T07:53:26.202Z,21.6
2017-09-06T07:54:28.626Z,21.9
2017-09-06T07:55:30.757Z,22.5
2017-09-06T07:56:33.001Z,22.4
2017-09-06T07:57:35.215Z,22.4
2017-09-06T07:58:37.377Z,21.8
2017-09-06T07:59:39.924Z,21.4
2017-09-06T08:00:42.103Z,21.2
2017-09-06T08:01:44.422Z,20.9
2017-09-06T08:02:46.567Z,20.8
2017-09-06T08:03:48.846Z,20.7
2017-09-06T08:04:51.514Z,20.6
2017-09-06T08:05:53.868Z,20.6
2017-09-06T08:06:56.195Z,20.5
2017-09-06T08:07:58.489Z,20.4
2017-09-06T08:09:00.758Z,20.3
2017-09-06T08:10:03.337Z,20.3
2017-09-06T08:11:05.467Z,20.3
2017-09-06T08:12:07.621Z,20.3
2017-09-06T08:13:09.755Z,20.1
2017-09-06T08:14:12.056Z,20.2
2017-09-06T08:15:14.642Z,20.1
2017-09-06T08:16:16.788Z,20.2
2017-09-06T08:17:18.852Z,20
2017-09-06T08:18:21.043Z,20.1
2017-09-06T08:19:23.163Z,20.1
2017-09-06T08:20:25.665Z,20
2017-09-06T08:21:28.118Z,20
2017-09-06T08:22:30.231Z,19.8
2017-09-06T08:23:32.383Z,19.5
2017-09-06T08:24:34.660Z,19.5
2017-09-06T08:25:37.103Z,19.5
2017-09-06T08:26:39.271Z,19.5
2017-09-06T08:27:41.436Z,19.5
2017-09-06T08:28:43.580Z,19.5
2017-09-06T08:29:45.720Z,19.4
2017-09-06T08:30:48.115Z,19.5
2017-09-06T08:31:50.230Z,19.4
2017-09-06T08:32:52.362Z,19.7
2017-09-06T08:33:54.549Z,19.9
2017-09-06T08:34:56.664Z,20.1
2017-09-06T08:35:59.109Z,20.3
2017-09-06T08:37:01.285Z,20.3
2017-09-06T08:38:03.436Z,20.2
2017-09-06T08:39:05.586Z,20.1
2017-09-06T08:40:07.721Z,20.2
2017-09-06T08:41:10.218Z,20.3
2017-09-06T08:42:12.422Z,20.1
2017-09-06T08:43:14.587Z,20
2017-09-06T08:44:16.737Z,20.3
2017-09-06T08:45:18.830Z,20.3
2017-09-06T08:46:21.366Z,20.4
2017-09-06T08:47:23.675Z,20.5
2017-09-06T08:48:25.851Z,20.4
2017-09-06T08:49:27.956Z,20.5
2017-09-06T08:50:30.008Z,20.5
2017-09-06T08:51:32.406Z,20.4
2017-09-06T08:52:34.541Z,20.3
2017-09-06T08:53:36.739Z,20.3
2017-09-06T08:54:38.865Z,20.3
2017-09-06T08:55:40.913Z,20.3
2017-09-06T08:56:43.409Z,20.3
2017-09-06T08:57:45.683Z,20.1
2017-09-06T08:58:47.782Z,20
2017-09-06T08:59:49.941Z,20
2017-09-06T09:00:52.046Z,20.2
2017-09-06T09:01:54.493Z,20.1
2017-09-06T09:02:56.621Z,20.3
2017-09-06T09:03:58.725Z,20.4
2017-09-06T09:05:00.831Z,20.4
2017-09-06T09:06:03.048Z,20.5
2017-09-06T09:07:05.568Z,20.4
2017-09-06T09:08:07.685Z,20.7
2017-09-06T09:09:09.829Z,20.6
2017-09-06T09:10:11.947Z,20.5
2017-09-06T09:11:14.073Z,20.3
2017-09-06T09:12:16.562Z,20.3
2017-09-06T09:13:18.661Z,20.3
2017-09-06T09:14:20.804Z,20.4
2017-09-06T09:15:22.911Z,20.5
2017-09-06T09:16:25.135Z,20.6
2017-09-06T09:17:27.647Z,20.5
2017-09-06T09:18:30.789Z,20.5
2017-09-06T09:19:32.951Z,20.4
2017-09-06T09:20:35.035Z,20.4
2017-09-06T09:21:37.176Z,20.6
2017-09-06T09:22:39.562Z,20.6
2017-09-06T09:23:41.643Z,20.3
2017-09-06T09:24:43.713Z,20.1
2017-09-06T09:25:45.814Z,19.9
2017-09-06T09:26:47.911Z,19.9
2017-09-06T09:27:50.260Z,19.8
2017-09-06T09:28:52.420Z,19.7
2017-09-06T09:29:54.565Z,19.5
2017-09-06T09:30:56.683Z,19.5
2017-09-06T09:31:58.837Z,19.3
2017-09-06T09:33:01.341Z,19.2
2017-09-06T09:34:03.477Z,19.2
2017-09-06T09:35:05.601Z,19.4
2017-09-06T09:36:07.687Z,19.5
2017-09-06T09:37:09.882Z,19.4
2017-09-06T09:38:12.376Z,19.6
2017-09-06T09:39:14.697Z,19.4
2017-09-06T09:40:16.922Z,19.5
2017-09-06T09:41:19.087Z,19.6
2017-09-06T09:42:21.275Z,19.9
2017-09-06T09:43:23.840Z,20.5
2017-09-06T09:44:25.981Z,20.6
2017-09-06T09:45:28.175Z,20.6
2017-09-06T09:46:30.374Z,22.5
2017-09-06T09:47:32.518Z,22.5
2017-09-06T09:48:35.093Z,21.6
2017-09-06T09:49:37.219Z,20.7
2017-09-06T09:50:39.356Z,20.6
2017-09-06T09:51:41.587Z,20.5
2017-09-06T09:52:43.858Z,20.2
2017-09-06T09:53:46.367Z,20.3
2017-09-06T09:54:48.520Z,20
2017-09-06T09:55:50.689Z,20.9
2017-09-06T09:56:52.960Z,20.9
2017-09-06T09:57:55.097Z,20.9
2017-09-06T09:58:57.795Z,20.8
2017-09-06T09:59:59.975Z,20.7
2017-09-06T10:01:02.185Z,21
2017-09-06T10:02:04.417Z,21
2017-09-06T10:03:06.754Z,20.9
2017-09-06T10:04:09.314Z,20.8
2017-09-06T10:05:11.664Z,20.7
2017-09-06T10:06:13.773Z,20.7
2017-09-06T10:07:16.059Z,20.7
2017-09-06T10:08:18.206Z,20.6
2017-09-06T10:09:20.715Z,20.2
2017-09-06T10:10:22.959Z,20.4
2017-09-06T10:11:25.127Z,20.3
2017-09-06T10:12:27.386Z,20.5
2017-09-06T10:13:29.708Z,20.3
2017-09-06T10:14:32.240Z,20.4
2017-09-06T10:15:34.348Z,20.4
2017-09-06T10:16:36.441Z,20.4
2017-09-06T10:17:38.625Z,20.2
2017-09-06T10:18:40.910Z,20.3
2017-09-06T10:19:43.504Z,20.1
2017-09-06T10:20:45.655Z,19.9
2017-09-06T10:21:47.722Z,19.9
2017-09-06T10:22:49.880Z,19.9
2017-09-06T10:23:52.165Z,19.9
2017-09-06T10:24:54.680Z,19.8
2017-09-06T10:25:57.139Z,19.8
2017-09-06T10:26:59.377Z,19.7
2017-09-06T10:28:01.543Z,19.8
2017-09-06T10:29:03.718Z,19.5
2017-09-06T10:30:06.278Z,19.3
2017-09-06T10:31:08.574Z,19
2017-09-06T10:32:10.748Z,18.5
2017-09-06T10:33:12.941Z,18.9
2017-09-06T10:34:15.743Z,18.9
2017-09-06T10:35:18.320Z,18.9
2017-09-06T10:36:20.519Z,18.8
2017-09-06T10:37:22.743Z,18.8
2017-09-06T10:38:25.057Z,18.8
2017-09-06T10:39:27.184Z,18.8
2017-09-06T10:40:29.834Z,18.7
2017-09-06T10:41:31.973Z,18.6
2017-09-06T10:42:34.249Z,18.6
2017-09-06T10:43:36.448Z,18.6
2017-09-06T10:44:38.597Z,18.6
2017-09-06T10:45:41.117Z,18.5
2017-09-06T10:46:43.281Z,18.6
2017-09-06T10:47:45.440Z,18.8
2017-09-06T10:48:47.597Z,18.7
2017-09-06T10:49:49.815Z,18.7
2017-09-06T10:50:52.351Z,18.8
2017-09-06T10:51:54.646Z,18.8
2017-09-06T10:52:56.813Z,18.7
2017-09-06T10:53:59.038Z,18.6
2017-09-06T10:55:01.719Z,18.6
2017-09-06T10:56:04.301Z,18.8
2017-09-06T10:57:06.453Z,18.7
2017-09-06T10:58:08.650Z,18.7
2017-09-06T10:59:10.809Z,18.7
2017-09-06T11:00:12.936Z,18.6
2017-09-06T11:01:15.400Z,18.6
2017-09-06T11:02:17.600Z,18.5
2017-09-06T11:03:20.346Z,18.6
2017-09-06T11:04:22.630Z,18.6
2017-09-06T11:05:24.922Z,18.5
2017-09-06T11:06:27.404Z,18.5
2017-09-06T11:07:29.630Z,18.6
2017-09-06T11:08:31.833Z,18.6
2017-09-06T11:09:34.237Z,18.6
2017-09-06T11:10:36.619Z,18.4
2017-09-06T11:11:39.209Z,18.5
2017-09-06T11:12:41.400Z,18.6
2017-09-06T11:13:43.590Z,18.6
2017-09-06T11:14:45.813Z,18.6
2017-09-06T11:15:47.945Z,18.6
2017-09-06T11:16:50.449Z,18.7
2017-09-06T11:17:52.615Z,18.6
2017-09-06T11:18:54.804Z,18.6
2017-09-06T11:19:56.991Z,18.6
2017-09-06T11:20:59.125Z,18.6
2017-09-06T11:22:01.666Z,18.5
2017-09-06T11:23:03.861Z,18.4
2017-09-06T11:24:06.177Z,18.3
2017-09-06T11:25:08.396Z,18.3
2017-09-06T11:26:10.878Z,18.3
2017-09-06T11:27:13.321Z,18.3
2017-09-06T11:28:15.479Z,18.1
2017-09-06T11:29:17.670Z,18
2017-09-06T11:30:19.887Z,18.1
2017-09-06T11:31:22.048Z,18.2
2017-09-06T11:32:24.488Z,18.1
2017-09-06T11:33:26.835Z,18
2017-09-06T11:34:29.009Z,18.1
2017-09-06T11:35:31.186Z,18.1
2017-09-06T11:36:33.348Z,18.1
2017-09-06T11:37:35.811Z,18.1
2017-09-06T11:38:38.025Z,18.1
2017-09-06T11:39:40.220Z,18.1
2017-09-06T11:40:42.411Z,18.1
2017-09-06T11:41:44.526Z,18.1
2017-09-06T11:42:46.958Z,18.1
2017-09-06T11:43:49.064Z,18
2017-09-06T11:44:51.220Z,17.9
2017-09-06T11:45:53.528Z,17.7
2017-09-06T11:46:55.743Z,17.6
2017-09-06T11:47:58.380Z,17.5
2017-09-06T11:49:00.614Z,17.6
2017-09-06T11:50:02.926Z,17.6
2017-09-06T11:51:05.679Z,17.6
2017-09-06T11:52:07.885Z,17.7
2017-09-06T11:53:10.481Z,17.7
2017-09-06T11:54:12.600Z,17.7
2017-09-06T11:55:14.919Z,17.5
2017-09-06T11:56:17.663Z,17.6
2017-09-06T11:57:19.846Z,17.6
2017-09-06T11:58:22.066Z,17.6
2017-09-06T11:59:24.315Z,17.6
2017-09-06T12:00:26.465Z,17.5
2017-09-06T12:01:28.925Z,17.6
2017-09-06T12:02:31.315Z,17.6
2017-09-06T12:03:33.497Z,17.7
2017-09-06T12:04:35.665Z,17.7
2017-09-06T12:05:37.904Z,17.7
2017-09-06T12:06:40.282Z,17.5
2017-09-06T12:07:42.525Z,17.7
2017-09-06T12:08:44.704Z,17.8
2017-09-06T12:09:46.896Z,17.9
2017-09-06T12:10:49.135Z,17.9
2017-09-06T12:11:51.675Z,17.9
2017-09-06T12:12:53.799Z,17.9
2017-09-06T12:13:56.030Z,18
2017-09-06T12:14:58.255Z,18.1
2017-09-06T12:16:00.437Z,18
2017-09-06T12:17:02.958Z,17.9
2017-09-06T12:18:05.200Z,17.8
2017-09-06T12:19:07.389Z,17.9
2017-09-06T12:20:09.607Z,17.8
2017-09-06T12:21:11.791Z,18
2017-09-06T12:22:14.316Z,17.9
2017-09-06T12:23:16.473Z,18
2017-09-06T12:24:18.665Z,17.8
2017-09-06T12:25:20.963Z,17.7
2017-09-06T12:26:23.149Z,17.9
2017-09-06T12:27:25.599Z,17.9
2017-09-06T12:28:27.876Z,17.8
2017-09-06T12:29:30.104Z,18
2017-09-06T12:30:32.281Z,18.1
2017-09-06T12:31:34.461Z,18.2
2017-09-06T12:32:36.968Z,18.1
2017-09-06T12:33:39.146Z,18.1
2017-09-06T12:34:41.313Z,18
2017-09-06T12:35:43.615Z,18.2
2017-09-06T12:36:45.864Z,18.3
2017-09-06T12:37:48.316Z,18.2
2017-09-06T12:38:50.505Z,18.2
2017-09-06T12:39:52.707Z,18.2
2017-09-06T12:40:54.815Z,18.3
2017-09-06T12:41:57.046Z,18.3
2017-09-06T12:42:59.591Z,18.2
2017-09-06T12:44:01.805Z,18
2017-09-06T12:45:04.021Z,18.1
2017-09-06T12:46:06.226Z,18
2017-09-06T12:47:08.467Z,18
2017-09-06T12:48:11.097Z,18
2017-09-06T12:49:13.330Z,17.8
2017-09-06T12:50:15.540Z,17.8
2017-09-06T12:51:17.759Z,17.9
2017-09-06T12:52:19.982Z,17.9
2017-09-06T12:53:22.404Z,18
2017-09-06T12:54:24.627Z,18
2017-09-06T12:55:26.801Z,17.9
2017-09-06T12:56:29.011Z,17.8
2017-09-06T12:57:31.241Z,17.9
2017-09-06T12:58:33.748Z,17.8
2017-09-06T12:59:35.904Z,17.5
2017-09-06T13:00:38.088Z,17.5
2017-09-06T13:01:40.243Z,17.7
2017-09-06T13:02:42.350Z,17.7
2017-09-06T13:03:44.864Z,17.8
2017-09-06T13:04:47.109Z,17.8
2017-09-06T13:05:49.271Z,17.8
2017-09-06T13:06:51.448Z,17.8
2017-09-06T13:07:53.564Z,17.8
2017-09-06T13:08:56.044Z,17.8
2017-09-06T13:09:58.218Z,17.9
2017-09-06T13:11:00.378Z,17.6
2017-09-06T13:12:02.600Z,17.7
2017-09-06T13:13:04.800Z,17.9
2017-09-06T13:14:07.328Z,17.6
2017-09-06T13:15:09.530Z,17.6
2017-09-06T13:16:11.957Z,17.6
2017-09-06T13:17:14.206Z,17.6
2017-09-06T13:18:16.330Z,17.7
2017-09-06T13:19:18.872Z,17.9
2017-09-06T13:20:20.974Z,17.5
2017-09-06T13:21:23.151Z,17.5
2017-09-06T13:22:25.398Z,17.5
2017-09-06T13:23:27.519Z,17.6
2017-09-06T13:24:29.991Z,17.8
2017-09-06T13:25:32.038Z,18
2017-09-06T13:26:34.186Z,18.4
2017-09-06T13:27:36.373Z,18.7
2017-09-06T13:28:38.604Z,18.9
2017-09-06T13:29:41.094Z,19
2017-09-06T13:30:43.301Z,19.1
2017-09-06T13:31:45.445Z,19.1
2017-09-06T13:32:47.639Z,19
2017-09-06T13:33:49.789Z,19
2017-09-06T13:34:52.229Z,19.3
2017-09-06T13:35:54.403Z,19.2
2017-09-06T13:36:56.501Z,19.3
2017-09-06T13:37:58.693Z,19.4
2017-09-06T13:39:00.861Z,19.5
2017-09-06T13:40:03.446Z,19.3
2017-09-06T13:41:05.656Z,19.4
2017-09-06T13:42:07.963Z,19.4
2017-09-06T13:43:10.189Z,19.6
2017-09-06T13:44:12.436Z,19.6
2017-09-06T13:45:15.076Z,19.6
2017-09-06T13:46:17.340Z,19.4
2017-09-06T13:47:19.634Z,19.5
2017-09-06T13:48:21.871Z,19.6
2017-09-06T13:49:24.085Z,19.5
2017-09-06T13:50:26.530Z,19.4
2017-09-06T13:51:28.730Z,19.2
2017-09-06T13:52:30.923Z,19.2
2017-09-06T13:53:33.150Z,19
2017-09-06T13:54:35.294Z,18.8
2017-09-06T13:55:37.675Z,18.6